createdAt,value
2018-02-06T00:00:09.673Z,0.00
2018-02-06T00:01:09.712Z,0.00
2018-02-06T00:02:09.624Z,0.00
2018-02-06T00:03:09.613Z,0.00
2018-02-06T00:04:09.598Z,0.00
2018-02-06T00:05:09.583Z,0.00
2018-02-06T00:06:09.572Z,0.00
2018-02-06T00:07:09.618Z,0.00
2018-02-06T00:08:09.539Z,0.00
2018-02-06T00:09:09.572Z,0.00
2018-02-06T00:10:09.529Z,0.00
2018-02-06T00:11:09.497Z,0.00
2018-02-06T00:12:09.483Z,0.00
2018-02-06T00:13:09.478Z,0.00
2018-02-06T00:14:09.452Z,0.00
2018-02-06T00:15:09.461Z,0.00
2018-02-06T00:16:09.425Z,0.00
2018-02-06T00:17:09.422Z,0.00
2018-02-06T00:18:09.397Z,0.00
2018-02-06T00:19:09.382Z,0.00
2018-02-06T00:20:09.364Z,0.00
2018-02-06T00:21:09.351Z,0.00
2018-02-06T00:22:09.341Z,0.00
2018-02-06T00:23:09.318Z,0.00
2018-02-06T00:24:09.313Z,0.00
2018-02-06T00:25:09.291Z,0.00
2018-02-06T00:26:09.276Z,0.00
2018-02-06T00:27:09.278Z,0.00
2018-02-06T00:28:09.249Z,0.00
2018-02-06T00:29:09.235Z,0.00
2018-02-06T00:30:09.220Z,0.00
2018-02-06T00:31:09.233Z,0.00
2018-02-06T00:32:09.192Z,0.00
2018-02-06T00:33:09.174Z,0.00
2018-02-06T00:34:09.187Z,0.00
2018-02-06T00:35:09.144Z,0.00
2018-02-06T00:36:09.135Z,0.00
2018-02-06T00:37:09.120Z,0.00
2018-02-06T00:38:09.107Z,0.00
2018-02-06T00:39:09.109Z,0.00
2018-02-06T00:40:09.112Z,0.00
2018-02-06T00:41:09.064Z,0.00
2018-02-06T00:42:09.045Z,0.00
2018-02-06T00:43:09.037Z,0.00
2018-02-06T00:44:09.017Z,0.00
2018-02-06T00:45:08.992Z,0.00
2018-02-06T00:46:08.993Z,0.00
2018-02-06T00:47:09.004Z,0.00
2018-02-06T00:48:08.962Z,0.00
2018-02-06T00:49:08.944Z,0.00
2018-02-06T00:50:08.927Z,0.00
2018-02-06T00:51:08.915Z,0.00
2018-02-06T00:52:08.905Z,0.00
2018-02-06T00:53:08.884Z,0.00
2018-02-06T00:54:08.881Z,0.00
2018-02-06T00:55:08.858Z,0.00
2018-02-06T00:56:08.842Z,0.00
2018-02-06T00:57:08.828Z,0.00
2018-02-06T00:58:08.819Z,0.00
2018-02-06T00:59:08.805Z,0.00
2018-02-06T01:00:08.784Z,0.00
2018-02-06T01:01:08.776Z,0.00
2018-02-06T01:02:08.759Z,0.00
2018-02-06T01:03:08.743Z,0.00
2018-02-06T01:04:08.729Z,0.00
2018-02-06T01:05:08.710Z,0.00
2018-02-06T01:06:08.692Z,0.00
2018-02-06T01:07:08.683Z,0.00
2018-02-06T01:08:08.674Z,0.00
2018-02-06T01:09:08.683Z,0.00
2018-02-06T01:10:08.691Z,0.00
2018-02-06T01:11:08.630Z,0.00
2018-02-06T01:12:08.625Z,0.00
2018-02-06T01:13:08.622Z,0.00
2018-02-06T01:14:08.592Z,0.00
2018-02-06T01:15:08.575Z,0.00
2018-02-06T01:16:08.556Z,0.00
2018-02-06T01:17:08.591Z,0.00
2018-02-06T01:18:08.524Z,0.00
2018-02-06T01:19:08.513Z,0.00
2018-02-06T01:20:08.498Z,0.00
2018-02-06T01:21:08.483Z,0.00
2018-02-06T01:22:08.470Z,0.00
2018-02-06T01:23:08.454Z,0.00
2018-02-06T01:24:08.483Z,0.00
2018-02-06T01:25:08.428Z,0.00
2018-02-06T01:26:08.416Z,0.00
2018-02-06T01:27:08.449Z,0.00
2018-02-06T01:28:08.380Z,0.00
2018-02-06T01:29:08.375Z,0.00
2018-02-06T01:30:08.359Z,0.00
2018-02-06T01:31:08.342Z,0.00
2018-02-06T01:32:08.330Z,0.00
2018-02-06T01:33:08.312Z,0.00
2018-02-06T01:34:08.300Z,0.00
2018-02-06T01:35:08.299Z,0.00
2018-02-06T01:36:08.276Z,0.00
2018-02-06T01:37:08.260Z,0.00
2018-02-06T01:38:08.244Z,0.00
2018-02-06T01:39:08.231Z,0.00
2018-02-06T01:40:08.228Z,0.00
2018-02-06T01:41:08.208Z,0.00
2018-02-06T01:42:08.185Z,0.00
2018-02-06T01:43:08.192Z,0.00
2018-02-06T01:44:08.160Z,0.00
2018-02-06T01:45:08.144Z,0.00
2018-02-06T01:46:08.130Z,0.00
2018-02-06T01:47:08.118Z,0.00
2018-02-06T01:48:08.102Z,0.00
2018-02-06T01:49:08.089Z,0.00
2018-02-06T01:50:08.076Z,0.00
2018-02-06T01:51:08.061Z,0.00
2018-02-06T01:52:08.046Z,0.00
2018-02-06T01:53:08.031Z,0.00
2018-02-06T01:54:08.058Z,0.00
2018-02-06T01:55:08.001Z,0.00
2018-02-06T01:56:07.991Z,0.00
2018-02-06T01:57:07.976Z,0.00
2018-02-06T01:58:07.955Z,0.00
2018-02-06T01:59:07.948Z,0.00
2018-02-06T02:00:07.929Z,0.00
2018-02-06T02:01:07.939Z,0.00
2018-02-06T02:02:07.905Z,0.00
2018-02-06T02:03:07.888Z,0.00
2018-02-06T02:04:07.876Z,0.00
2018-02-06T02:05:07.855Z,0.00
2018-02-06T02:06:07.851Z,0.00
2018-02-06T02:07:07.837Z,0.00
2018-02-06T02:08:07.821Z,0.00
2018-02-06T02:09:07.805Z,0.00
2018-02-06T02:10:07.812Z,0.00
2018-02-06T02:11:07.774Z,0.00
2018-02-06T02:12:07.805Z,0.00
2018-02-06T02:13:07.774Z,0.00
2018-02-06T02:14:07.733Z,0.00
2018-02-06T02:15:07.717Z,0.00
2018-02-06T02:16:07.705Z,0.00
2018-02-06T02:17:07.688Z,0.00
2018-02-06T02:18:07.674Z,0.00
2018-02-06T02:19:07.661Z,0.00
2018-02-06T02:20:07.648Z,0.00
2018-02-06T02:21:07.661Z,0.00
2018-02-06T02:22:07.618Z,0.00
2018-02-06T02:23:07.605Z,0.00
2018-02-06T02:24:07.598Z,0.00
2018-02-06T02:25:07.575Z,0.00
2018-02-06T02:26:07.560Z,0.00
2018-02-06T02:27:07.547Z,0.00
2018-02-06T02:28:07.533Z,0.00
2018-02-06T02:29:07.523Z,0.00
2018-02-06T02:30:07.536Z,0.00
2018-02-06T02:31:07.492Z,0.00
2018-02-06T02:32:07.478Z,0.00
2018-02-06T02:33:07.458Z,0.00
2018-02-06T02:34:07.444Z,0.00
2018-02-06T02:35:07.432Z,0.00
2018-02-06T02:36:07.421Z,0.00
2018-02-06T02:37:07.407Z,0.00
2018-02-06T02:38:07.390Z,0.00
2018-02-06T02:39:07.377Z,0.00
2018-02-06T02:40:07.374Z,0.00
2018-02-06T02:41:07.345Z,0.00
2018-02-06T04:39:05.677Z,0.00
2018-02-06T04:40:05.676Z,0.00
2018-02-06T04:41:05.646Z,0.00
2018-02-06T04:42:05.627Z,0.00
2018-02-06T04:43:05.613Z,0.00
2018-02-06T04:44:05.599Z,0.00
2018-02-06T04:45:05.582Z,0.00
2018-02-06T04:46:05.586Z,0.00
2018-02-06T04:47:05.556Z,0.00
2018-02-06T04:48:05.549Z,0.00
2018-02-06T04:49:05.528Z,0.00
2018-02-06T04:50:05.513Z,0.00
2018-02-06T04:51:05.502Z,0.00
2018-02-06T04:52:05.486Z,0.00
2018-02-06T04:53:05.480Z,0.00
2018-02-06T04:54:05.526Z,0.00
2018-02-06T04:55:05.447Z,0.00
2018-02-06T04:56:05.430Z,0.00
2018-02-06T04:57:05.442Z,0.00
2018-02-06T04:58:05.399Z,0.00
2018-02-06T04:59:05.388Z,0.00
2018-02-06T05:00:05.368Z,0.00
2018-02-06T05:01:05.359Z,0.00
2018-02-06T05:02:05.347Z,0.00
2018-02-06T05:03:05.332Z,0.00
2018-02-06T05:04:05.316Z,0.00
2018-02-06T05:05:05.407Z,0.00
2018-02-06T05:06:05.289Z,0.00
2018-02-06T05:07:05.277Z,0.00
2018-02-06T05:08:05.259Z,0.00
2018-02-06T05:09:05.269Z,0.00
2018-02-06T05:10:05.238Z,0.00
2018-02-06T05:11:05.227Z,0.00
2018-02-06T05:12:05.231Z,0.00
2018-02-06T05:13:05.248Z,0.00
2018-02-06T05:14:05.212Z,0.00
2018-02-06T05:15:05.172Z,0.00
2018-02-06T05:16:05.161Z,0.00
2018-02-06T05:17:05.141Z,0.00
2018-02-06T05:18:05.133Z,0.00
2018-02-06T05:19:05.140Z,0.00
2018-02-06T05:20:05.089Z,0.00
2018-02-06T05:21:05.090Z,0.00
2018-02-06T05:22:05.096Z,0.00
2018-02-06T05:23:05.106Z,0.00
2018-02-06T05:24:05.113Z,0.00
2018-02-06T05:25:05.030Z,0.00
2018-02-06T05:26:05.011Z,0.00
2018-02-06T05:27:04.995Z,0.00
2018-02-06T05:28:04.981Z,0.00
2018-02-06T05:29:04.968Z,0.00
2018-02-06T05:30:04.968Z,0.00
2018-02-06T05:31:04.941Z,0.00
2018-02-06T05:32:05.630Z,0.00
2018-02-06T05:33:04.910Z,0.00
2018-02-06T05:34:04.910Z,0.00
2018-02-06T05:35:04.906Z,0.00
2018-02-06T05:36:04.876Z,0.00
2018-02-06T05:37:04.885Z,0.00
2018-02-06T05:38:04.840Z,0.00
2018-02-06T05:39:04.831Z,0.00
2018-02-06T05:40:04.814Z,0.00
2018-02-06T05:41:04.797Z,0.00
2018-02-06T05:42:04.785Z,0.00
2018-02-06T05:43:04.772Z,0.00
2018-02-06T05:44:04.762Z,0.00
2018-02-06T05:45:04.746Z,0.00
2018-02-06T05:46:04.727Z,0.00
2018-02-06T05:47:04.712Z,0.00
2018-02-06T05:48:04.701Z,0.00
2018-02-06T05:49:04.686Z,0.00
2018-02-06T05:50:04.674Z,0.00
2018-02-06T05:51:04.662Z,0.00
2018-02-06T05:52:04.645Z,0.00
2018-02-06T05:53:04.710Z,0.00
2018-02-06T05:54:04.617Z,0.00
2018-02-06T05:55:04.599Z,0.00
2018-02-06T05:56:04.593Z,0.00
2018-02-06T05:57:04.571Z,0.00
2018-02-06T05:58:04.557Z,0.00
2018-02-06T05:59:04.555Z,0.00
2018-02-06T06:00:04.531Z,0.00
2018-02-06T06:01:04.526Z,0.00
2018-02-06T06:02:04.500Z,0.00
2018-02-06T06:03:04.488Z,0.00
2018-02-06T06:04:04.477Z,0.00
2018-02-06T06:05:04.464Z,0.00
2018-02-06T06:06:04.451Z,0.00
2018-02-06T06:07:04.432Z,0.00
2018-02-06T06:08:04.420Z,0.00
2018-02-06T06:09:04.407Z,0.00
2018-02-06T06:10:04.410Z,0.00
2018-02-06T06:11:04.383Z,0.00
2018-02-06T06:12:04.368Z,0.00
2018-02-06T06:13:04.350Z,0.00
2018-02-06T06:14:04.330Z,4.00
2018-02-06T06:15:04.322Z,4.00
2018-02-06T06:16:04.301Z,4.00
2018-02-06T06:17:04.288Z,4.00
2018-02-06T06:18:04.273Z,4.00
2018-02-06T06:19:04.258Z,4.00
2018-02-06T06:20:04.242Z,8.00
2018-02-06T06:21:04.231Z,8.00
2018-02-06T06:22:04.222Z,8.00
2018-02-06T06:23:04.210Z,12.00
2018-02-06T06:24:04.199Z,12.00
2018-02-06T06:25:04.174Z,16.00
2018-02-06T06:26:04.158Z,20.00
2018-02-06T06:27:04.145Z,24.00
2018-02-06T06:28:04.131Z,28.00
2018-02-06T06:29:04.120Z,32.00
2018-02-06T06:30:04.103Z,40.00
2018-02-06T06:31:04.088Z,44.00
2018-02-06T06:32:04.083Z,52.00
2018-02-06T06:33:04.060Z,60.00
2018-02-06T06:34:04.046Z,68.00
2018-02-06T06:35:04.042Z,80.00
2018-02-06T06:36:04.032Z,88.00
2018-02-06T06:37:04.009Z,96.00
2018-02-06T06:38:03.991Z,108.00
2018-02-06T06:39:03.974Z,120.00
2018-02-06T06:40:03.970Z,140.00
2018-02-06T06:41:03.949Z,156.00
2018-02-06T06:42:03.936Z,164.00
2018-02-06T06:43:03.936Z,176.00
2018-02-06T06:44:03.906Z,200.00
2018-02-06T06:45:03.910Z,212.00
2018-02-06T06:46:03.893Z,224.00
2018-02-06T06:47:03.864Z,248.00
2018-02-06T06:48:04.638Z,268.00
2018-02-06T06:49:03.847Z,288.00
2018-02-06T06:50:03.822Z,312.00
2018-02-06T06:51:03.805Z,340.00
2018-02-06T06:52:03.790Z,360.00
2018-02-06T06:53:03.778Z,372.00
2018-02-06T06:54:03.766Z,388.00
2018-02-06T06:55:03.803Z,412.00
2018-02-06T06:56:03.732Z,428.00
2018-02-06T06:57:03.720Z,444.00
2018-02-06T06:58:03.710Z,472.00
2018-02-06T06:59:03.689Z,480.00
2018-02-06T07:00:03.685Z,500.00
2018-02-06T07:01:03.662Z,540.00
2018-02-06T07:02:03.648Z,552.00
2018-02-06T07:03:03.636Z,548.00
2018-02-06T07:04:03.619Z,564.00
2018-02-06T07:05:03.600Z,596.00
2018-02-06T07:06:03.596Z,624.00
2018-02-06T07:07:03.585Z,648.00
2018-02-06T07:08:03.567Z,660.00
2018-02-06T07:09:03.553Z,700.00
2018-02-06T07:10:03.543Z,744.00
2018-02-06T07:11:03.526Z,808.00
2018-02-06T07:12:03.513Z,888.00
2018-02-06T07:13:03.507Z,916.00
2018-02-06T07:14:03.475Z,936.00
2018-02-06T07:15:03.466Z,972.00
2018-02-06T07:16:03.460Z,1020.00
2018-02-06T07:17:03.434Z,1072.00
2018-02-06T07:18:03.422Z,1088.00
2018-02-06T07:19:03.412Z,1132.00
2018-02-06T07:20:03.395Z,1188.00
2018-02-06T07:21:03.380Z,1276.00
2018-02-06T07:22:03.367Z,1392.00
2018-02-06T07:23:03.351Z,1504.00
2018-02-06T07:24:03.336Z,1664.00
2018-02-06T07:25:03.326Z,1676.00
2018-02-06T07:26:03.309Z,1752.00
2018-02-06T07:27:03.289Z,1888.00
2018-02-06T07:28:03.284Z,2028.00
2018-02-06T07:29:03.268Z,2104.00
2018-02-06T07:30:03.248Z,2208.00
2018-02-06T07:31:03.283Z,2256.00
2018-02-06T07:32:03.224Z,2308.00
2018-02-06T07:33:03.215Z,2424.00
2018-02-06T07:34:03.200Z,2596.00
2018-02-06T07:35:03.183Z,2868.00
2018-02-06T07:36:03.173Z,3196.00
2018-02-06T07:37:03.157Z,3128.00
2018-02-06T07:38:03.144Z,3216.00
2018-02-06T07:39:03.130Z,3340.00
2018-02-06T07:40:03.121Z,3340.00
2018-02-06T07:41:03.101Z,3272.00
2018-02-06T07:42:03.087Z,3244.00
2018-02-06T07:43:03.084Z,3136.00
2018-02-06T07:44:03.067Z,3104.00
2018-02-06T07:45:03.047Z,3404.00
2018-02-06T07:46:03.035Z,3916.00
2018-02-06T07:47:03.020Z,3936.00
2018-02-06T07:48:03.008Z,3800.00
2018-02-06T07:49:02.985Z,3840.00
2018-02-06T07:50:02.983Z,3972.00
2018-02-06T07:51:02.978Z,4148.00
2018-02-06T07:52:02.956Z,4268.00
2018-02-06T07:53:02.935Z,4572.00
2018-02-06T07:54:02.927Z,4984.00
2018-02-06T07:55:02.909Z,5048.00
2018-02-06T07:56:02.903Z,4516.00
2018-02-06T07:57:02.891Z,4372.00
2018-02-06T07:58:02.873Z,4776.00
2018-02-06T07:59:02.866Z,4872.00
2018-02-06T08:00:02.849Z,4788.00
2018-02-06T08:01:02.835Z,4976.00
2018-02-06T08:02:02.821Z,5316.00
2018-02-06T08:03:02.808Z,6008.00
2018-02-06T08:04:02.799Z,6376.00
2018-02-06T08:05:02.785Z,6036.00
2018-02-06T08:06:02.769Z,5952.00
2018-02-06T08:07:02.765Z,6136.00
2018-02-06T08:08:02.746Z,6048.00
2018-02-06T08:09:02.730Z,5960.00
2018-02-06T08:10:02.722Z,5504.00
2018-02-06T08:11:02.704Z,5304.00
2018-02-06T08:12:02.707Z,5480.00
2018-02-06T08:13:02.685Z,5752.00
2018-02-06T08:14:02.669Z,5640.00
2018-02-06T08:15:02.656Z,5368.00
2018-02-06T08:16:02.642Z,6300.00
2018-02-06T08:17:02.626Z,6836.00
2018-02-06T08:18:02.616Z,6860.00
2018-02-06T08:19:02.603Z,6944.00
2018-02-06T08:20:02.591Z,6868.00
2018-02-06T08:21:02.584Z,6640.00
2018-02-06T08:22:02.564Z,6148.00
2018-02-06T08:23:02.556Z,5936.00
2018-02-06T08:24:02.540Z,6056.00
2018-02-06T08:25:02.527Z,6256.00
2018-02-06T08:26:02.528Z,6568.00
2018-02-06T08:27:02.502Z,6808.00
2018-02-06T08:28:02.488Z,6648.00
2018-02-06T08:29:02.476Z,6552.00
2018-02-06T08:30:02.463Z,6700.00
2018-02-06T08:31:02.452Z,6736.00
2018-02-06T08:32:02.437Z,6792.00
2018-02-06T08:33:02.427Z,6288.00
2018-02-06T08:34:02.413Z,6688.00
2018-02-06T08:35:02.401Z,6844.00
2018-02-06T08:36:02.390Z,6772.00
2018-02-06T08:37:02.378Z,6452.00
2018-02-06T08:38:02.377Z,6232.00
2018-02-06T08:39:02.353Z,6012.00
2018-02-06T08:40:02.349Z,5712.00
2018-02-06T08:41:02.329Z,5392.00
2018-02-06T08:42:02.314Z,5468.00
2018-02-06T08:43:02.338Z,5744.00
2018-02-06T08:44:02.293Z,5776.00
2018-02-06T08:45:02.282Z,6648.00
2018-02-06T08:46:02.265Z,6668.00
2018-02-06T08:47:02.254Z,6712.00
2018-02-06T08:48:02.252Z,6964.00
2018-02-06T08:49:02.231Z,7928.00
2018-02-06T08:50:02.229Z,8584.00
2018-02-06T08:51:02.206Z,8948.00
2018-02-06T08:52:02.193Z,8912.00
2018-02-06T08:53:02.182Z,9416.00
2018-02-06T08:54:02.171Z,10316.00
2018-02-06T08:55:02.157Z,11016.00
2018-02-06T08:56:02.150Z,10460.00
2018-02-06T08:57:02.133Z,9620.00
2018-02-06T08:58:02.119Z,9592.00
2018-02-06T08:59:02.109Z,9772.00
2018-02-06T09:00:02.100Z,10312.00
2018-02-06T09:01:02.085Z,10024.00
2018-02-06T09:02:02.078Z,10460.00
2018-02-06T09:03:02.060Z,10996.00
2018-02-06T09:04:02.049Z,11656.00
2018-02-06T09:05:02.059Z,11012.00
2018-02-06T09:06:02.720Z,10552.00
2018-02-06T09:07:02.018Z,11056.00
2018-02-06T09:08:02.007Z,11228.00
2018-02-06T09:09:01.999Z,11752.00
2018-02-06T09:10:01.990Z,12464.00
2018-02-06T09:11:01.975Z,13896.00
2018-02-06T09:12:01.961Z,12356.00
2018-02-06T09:13:01.953Z,11148.00
2018-02-06T09:14:01.939Z,10576.00
2018-02-06T09:15:01.929Z,10420.00
2018-02-06T09:16:01.931Z,10756.00
2018-02-06T09:17:01.908Z,11080.00
2018-02-06T09:18:09.085Z,11064.00
2018-02-06T09:19:54.863Z,10164.00
2018-02-06T09:20:54.829Z,10704.00
2018-02-06T09:22:47.727Z,11876.00
2018-02-06T09:23:47.690Z,12244.00
2018-02-06T09:25:40.573Z,12152.00
2018-02-06T09:26:40.553Z,12436.00
2018-02-06T09:28:33.440Z,13380.00
2018-02-06T09:29:33.407Z,13684.00
2018-02-06T09:31:26.322Z,14628.00
2018-02-06T09:32:26.304Z,14612.00
2018-02-06T09:34:19.226Z,15600.00
2018-02-06T09:35:19.208Z,14584.00
2018-02-06T09:37:12.090Z,14868.00
2018-02-06T09:38:12.081Z,15940.00
2018-02-06T09:40:04.963Z,15384.00
2018-02-06T09:41:04.932Z,14996.00
2018-02-06T09:42:57.838Z,14028.00
2018-02-06T09:43:57.824Z,13976.00
2018-02-06T09:45:50.766Z,14100.00
2018-02-06T09:46:50.700Z,13852.00
2018-02-06T09:48:43.594Z,12948.00
2018-02-06T09:49:43.573Z,12852.00
2018-02-06T09:50:43.565Z,13056.00
2018-02-06T09:51:43.563Z,12868.00
2018-02-06T09:52:43.544Z,12404.00
2018-02-06T09:53:43.538Z,12648.00
2018-02-06T09:54:43.522Z,13424.00
2018-02-06T09:55:43.513Z,14376.00
2018-02-06T09:56:43.509Z,14972.00
2018-02-06T09:57:43.501Z,14892.00
2018-02-06T09:58:43.488Z,14896.00
2018-02-06T09:59:43.476Z,15512.00
2018-02-06T10:00:43.469Z,15944.00
2018-02-06T10:01:43.459Z,15980.00
2018-02-06T10:02:43.451Z,15044.00
2018-02-06T10:03:43.436Z,14576.00
2018-02-06T10:04:43.429Z,14252.00
2018-02-06T10:05:43.417Z,13700.00
2018-02-06T10:06:43.430Z,13756.00
2018-02-06T10:07:43.401Z,14448.00
2018-02-06T10:08:43.389Z,14268.00
2018-02-06T10:09:43.375Z,13964.00
2018-02-06T10:10:43.375Z,13304.00
2018-02-06T10:11:43.362Z,12732.00
2018-02-06T10:12:43.352Z,11984.00
2018-02-06T10:13:43.347Z,11060.00
2018-02-06T10:14:43.328Z,10652.00
2018-02-06T10:15:43.326Z,10112.00
2018-02-06T10:16:43.314Z,9624.00
2018-02-06T10:17:43.302Z,9432.00
2018-02-06T10:18:43.295Z,9696.00
2018-02-06T10:19:43.288Z,9992.00
2018-02-06T10:20:43.274Z,10468.00
2018-02-06T10:21:43.265Z,10540.00
2018-02-06T10:22:43.245Z,10444.00
2018-02-06T10:23:43.245Z,9980.00
2018-02-06T10:24:43.227Z,9992.00
2018-02-06T10:25:43.223Z,10140.00
2018-02-06T10:26:43.217Z,10300.00
2018-02-06T10:27:43.207Z,10252.00
2018-02-06T10:28:43.195Z,10604.00
2018-02-06T10:29:43.185Z,11232.00
2018-02-06T10:30:43.175Z,11348.00
2018-02-06T10:31:43.164Z,12412.00
2018-02-06T10:32:43.154Z,13676.00
2018-02-06T10:33:43.142Z,14528.00
2018-02-06T10:34:43.122Z,14732.00
2018-02-06T10:35:43.118Z,13720.00
2018-02-06T10:36:43.117Z,13960.00
2018-02-06T10:37:43.097Z,15640.00
2018-02-06T10:38:43.098Z,17504.00
2018-02-06T10:39:43.074Z,19168.00
2018-02-06T10:40:43.073Z,20032.00
2018-02-06T10:41:43.062Z,19424.00
2018-02-06T10:42:43.057Z,18496.00
2018-02-06T10:43:43.044Z,18368.00
2018-02-06T10:44:43.036Z,17152.00
2018-02-06T10:45:43.023Z,16396.00
2018-02-06T10:46:43.017Z,18208.00
2018-02-06T10:47:43.002Z,19552.00
2018-02-06T10:48:42.998Z,20544.00
2018-02-06T10:49:43.000Z,21280.00
2018-02-06T10:50:42.980Z,21696.00
2018-02-06T10:51:42.975Z,23168.00
2018-02-06T10:52:42.966Z,22368.00
2018-02-06T10:53:42.958Z,21952.00
2018-02-06T10:54:42.952Z,24096.00
2018-02-06T10:55:42.942Z,23904.00
2018-02-06T10:56:42.948Z,22912.00
2018-02-06T10:57:42.927Z,21696.00
2018-02-06T10:58:42.926Z,21472.00
2018-02-06T10:59:42.943Z,21088.00
2018-02-06T11:00:42.914Z,21568.00
2018-02-06T11:01:42.912Z,19456.00
2018-02-06T11:02:42.911Z,19648.00
2018-02-06T11:03:42.894Z,19744.00
2018-02-06T11:04:42.890Z,20224.00
2018-02-06T11:05:42.897Z,19392.00
2018-02-06T11:06:42.879Z,17088.00
2018-02-06T11:07:42.875Z,16504.00
2018-02-06T11:08:42.871Z,17152.00
2018-02-06T11:09:42.860Z,17920.00
2018-02-06T11:10:42.856Z,19264.00
2018-02-06T11:11:42.852Z,17696.00
2018-02-06T11:12:42.841Z,14588.00
2018-02-06T11:13:42.860Z,13596.00
2018-02-06T11:14:42.833Z,16420.00
2018-02-06T11:15:42.825Z,19136.00
2018-02-06T11:16:42.824Z,23616.00
2018-02-06T11:17:42.812Z,21248.00
2018-02-06T11:18:42.809Z,18016.00
2018-02-06T11:19:42.807Z,19872.00
2018-02-06T11:20:42.800Z,21024.00
2018-02-06T11:21:42.795Z,21728.00
2018-02-06T11:22:42.815Z,21248.00
2018-02-06T11:23:42.785Z,19584.00
2018-02-06T11:24:42.780Z,18624.00
2018-02-06T11:25:42.770Z,18208.00
2018-02-06T11:26:42.764Z,16328.00
2018-02-06T11:27:42.769Z,15092.00
2018-02-06T11:28:42.759Z,15020.00
2018-02-06T11:29:42.755Z,14728.00
2018-02-06T11:30:42.756Z,16864.00
2018-02-06T11:31:42.748Z,17632.00
2018-02-06T11:32:42.783Z,19040.00
2018-02-06T11:33:42.740Z,18560.00
2018-02-06T11:34:42.733Z,17792.00
2018-02-06T11:35:42.729Z,18656.00
2018-02-06T11:36:42.727Z,16792.00
2018-02-06T11:37:42.716Z,16288.00
2018-02-06T11:38:42.719Z,15504.00
2018-02-06T11:39:42.716Z,15336.00
2018-02-06T11:40:42.718Z,15704.00
2018-02-06T11:41:42.712Z,16608.00
2018-02-06T11:42:42.708Z,20960.00
2018-02-06T11:43:42.708Z,21952.00
2018-02-06T11:44:42.702Z,21568.00
2018-02-06T11:45:42.704Z,20992.00
2018-02-06T11:46:42.700Z,19488.00
2018-02-06T11:47:42.703Z,19040.00
2018-02-06T11:48:42.701Z,17120.00
2018-02-06T11:49:42.699Z,14328.00
2018-02-06T11:50:42.695Z,13416.00
2018-02-06T11:51:42.704Z,13348.00
2018-02-06T11:52:42.696Z,12348.00
2018-02-06T11:53:42.705Z,13508.00
2018-02-06T11:54:42.689Z,14204.00
2018-02-06T11:55:42.686Z,15708.00
2018-02-06T11:56:42.688Z,15076.00
2018-02-06T11:57:42.677Z,13180.00
2018-02-06T11:58:42.684Z,10892.00
2018-02-06T11:59:42.680Z,10528.00
2018-02-06T12:00:42.683Z,10572.00
2018-02-06T12:01:42.687Z,11524.00
2018-02-06T12:02:42.675Z,14144.00
2018-02-06T12:03:42.677Z,16024.00
2018-02-06T12:04:42.676Z,14856.00
2018-02-06T12:05:42.673Z,13248.00
2018-02-06T12:06:42.691Z,11908.00
2018-02-06T12:07:42.676Z,11260.00
2018-02-06T12:08:42.676Z,11192.00
2018-02-06T12:09:42.669Z,9788.00
2018-02-06T12:10:42.667Z,10612.00
2018-02-06T12:11:42.666Z,9896.00
2018-02-06T12:12:42.669Z,9796.00
2018-02-06T12:13:42.659Z,10320.00
2018-02-06T12:14:42.653Z,10852.00
2018-02-06T12:15:42.670Z,10344.00
2018-02-06T12:16:42.656Z,9720.00
2018-02-06T12:17:42.656Z,9356.00
2018-02-06T12:18:42.655Z,9208.00
2018-02-06T12:19:42.653Z,9000.00
2018-02-06T12:20:42.646Z,9256.00
2018-02-06T12:21:42.649Z,10188.00
2018-02-06T12:22:42.645Z,10080.00
2018-02-06T12:23:42.652Z,9256.00
2018-02-06T12:24:42.642Z,9844.00
2018-02-06T12:25:42.641Z,9744.00
2018-02-06T12:26:42.641Z,9480.00
2018-02-06T12:27:42.636Z,9648.00
2018-02-06T12:28:42.634Z,9544.00
2018-02-06T12:29:42.639Z,9656.00
2018-02-06T12:30:42.652Z,9448.00
2018-02-06T12:31:42.636Z,9252.00
2018-02-06T12:32:42.630Z,9608.00
2018-02-06T12:33:42.634Z,9296.00
2018-02-06T12:34:42.634Z,9424.00
2018-02-06T12:35:42.629Z,9708.00
2018-02-06T12:36:42.636Z,9668.00
2018-02-06T12:37:42.627Z,9304.00
2018-02-06T12:38:42.646Z,9136.00
2018-02-06T12:39:42.620Z,8984.00
2018-02-06T12:40:42.625Z,9072.00
2018-02-06T12:41:42.626Z,9052.00
2018-02-06T12:42:42.641Z,9152.00
2018-02-06T12:43:42.615Z,9108.00
2018-02-06T12:44:42.620Z,9024.00
2018-02-06T12:45:42.616Z,8856.00
2018-02-06T12:46:42.617Z,8144.00
2018-02-06T12:47:42.616Z,8068.00
2018-02-06T12:48:42.615Z,7680.00
2018-02-06T12:49:42.608Z,7396.00
2018-02-06T12:50:42.611Z,7052.00
2018-02-06T12:51:42.610Z,6532.00
2018-02-06T12:52:42.608Z,6392.00
2018-02-06T12:53:42.606Z,6328.00
2018-02-06T12:54:42.609Z,6280.00
2018-02-06T12:55:42.606Z,6088.00
2018-02-06T12:56:42.598Z,6116.00
2018-02-06T12:57:42.595Z,6100.00
2018-02-06T12:58:42.592Z,6032.00
2018-02-06T12:59:42.590Z,5928.00
2018-02-06T13:00:42.586Z,6092.00
2018-02-06T13:01:42.582Z,6232.00
2018-02-06T13:02:42.583Z,6188.00
2018-02-06T13:03:42.580Z,6196.00
2018-02-06T13:04:42.568Z,6084.00
2018-02-06T13:05:42.564Z,6156.00
2018-02-06T13:06:42.558Z,6192.00
2018-02-06T13:07:42.553Z,6164.00
2018-02-06T13:08:42.551Z,6188.00
2018-02-06T13:09:42.543Z,6152.00
2018-02-06T13:10:42.537Z,6104.00
2018-02-06T13:11:42.531Z,6076.00
2018-02-06T13:12:42.527Z,6128.00
2018-02-06T13:13:42.517Z,6136.00
2018-02-06T13:14:42.513Z,6268.00
2018-02-06T13:15:42.503Z,6284.00
2018-02-06T13:16:42.498Z,6264.00
2018-02-06T13:17:42.496Z,6100.00
2018-02-06T13:18:42.486Z,6048.00
2018-02-06T13:19:42.483Z,5960.00
2018-02-06T13:20:42.472Z,6040.00
2018-02-06T13:21:42.469Z,5984.00
2018-02-06T13:22:42.453Z,6052.00
2018-02-06T13:23:42.449Z,6216.00
2018-02-06T13:24:42.445Z,6156.00
2018-02-06T13:25:42.435Z,6084.00
2018-02-06T13:26:42.422Z,6128.00
2018-02-06T13:27:42.431Z,6116.00
2018-02-06T13:28:42.425Z,6120.00
2018-02-06T13:29:42.399Z,6192.00
2018-02-06T13:30:42.395Z,6216.00
2018-02-06T13:31:42.436Z,6212.00
2018-02-06T13:32:42.384Z,6220.00
2018-02-06T13:33:42.366Z,6168.00
2018-02-06T13:34:42.357Z,6120.00
2018-02-06T13:35:42.355Z,6080.00
2018-02-06T13:36:42.346Z,6036.00
2018-02-06T13:37:42.373Z,5964.00
2018-02-06T13:38:42.326Z,5864.00
2018-02-06T13:39:42.318Z,5652.00
2018-02-06T13:40:42.303Z,5520.00
2018-02-06T13:41:42.309Z,5380.00
2018-02-06T13:42:42.308Z,5332.00
2018-02-06T13:43:42.286Z,5304.00
2018-02-06T13:44:42.278Z,5252.00
2018-02-06T13:45:42.269Z,5108.00
2018-02-06T13:46:42.258Z,4976.00
2018-02-06T13:47:42.265Z,4924.00
2018-02-06T13:48:42.242Z,4956.00
2018-02-06T13:49:42.229Z,4992.00
2018-02-06T13:50:42.228Z,5004.00
2018-02-06T13:51:42.208Z,5000.00
2018-02-06T13:52:42.216Z,4940.00
2018-02-06T13:53:42.198Z,4872.00
2018-02-06T13:54:42.188Z,4752.00
2018-02-06T13:55:42.194Z,4688.00
2018-02-06T13:56:42.162Z,4808.00
2018-02-06T13:57:42.158Z,4812.00
2018-02-06T13:58:42.154Z,4740.00
2018-02-06T13:59:42.212Z,4660.00
2018-02-06T14:00:42.131Z,4532.00
2018-02-06T14:01:42.119Z,4552.00
2018-02-06T14:02:42.108Z,4560.00
2018-02-06T14:03:42.102Z,4532.00
2018-02-06T14:04:42.096Z,4516.00
2018-02-06T14:05:42.088Z,4452.00
2018-02-06T14:06:42.069Z,4432.00
2018-02-06T14:07:42.077Z,4408.00
2018-02-06T14:08:42.062Z,4352.00
2018-02-06T14:09:42.045Z,4328.00
2018-02-06T14:10:42.039Z,4420.00
2018-02-06T14:11:42.029Z,4452.00
2018-02-06T14:12:42.018Z,4564.00
2018-02-06T14:13:42.009Z,4576.00
2018-02-06T14:14:42.008Z,4520.00
2018-02-06T14:15:41.990Z,4552.00
2018-02-06T14:16:41.984Z,4644.00
2018-02-06T14:17:42.014Z,4844.00
2018-02-06T14:18:41.961Z,4988.00
2018-02-06T14:19:41.946Z,5084.00
2018-02-06T14:20:41.945Z,5016.00
2018-02-06T14:21:41.945Z,4980.00
2018-02-06T14:22:41.932Z,4900.00
2018-02-06T14:23:41.904Z,4852.00
2018-02-06T14:24:41.904Z,4856.00
2018-02-06T14:25:41.896Z,4760.00
2018-02-06T14:26:41.883Z,4820.00
2018-02-06T14:27:41.874Z,4836.00
2018-02-06T14:28:41.867Z,4640.00
2018-02-06T14:29:41.854Z,4376.00
2018-02-06T14:30:41.847Z,4240.00
2018-02-06T14:31:41.838Z,4196.00
2018-02-06T14:32:41.828Z,4212.00